sensor_id;sensor_type;location;lat;lon;timestamp;temperature;humidity
55083;DHT22;40978;52.850;6.506;2022-09-13T00:00:33;17.30;99.90
55083;DHT22;40978;52.850;6.506;2022-09-13T00:02:59;17.30;99.90
55083;DHT22;40978;52.850;6.506;2022-09-13T00:05:25;17.20;99.90
55083;DHT22;40978;52.850;6.506;2022-09-13T00:07:50;17.30;99.90
55083;DHT22;40978;52.850;6.506;2022-09-13T00:10:16;17.20;99.90
55083;DHT22;40978;52.850;6.506;2022-09-13T00:12:42;17.20;99.90
55083;DHT22;40978;52.850;6.506;2022-09-13T00:15:08;17.30;99.90
55083;DHT22;40978;52.850;6.506;2022-09-13T00:17:34;17.20;99.90
55083;DHT22;40978;52.850;6.506;2022-09-13T00:20:00;17.20;99.90
55083;DHT22;40978;52.850;6.506;2022-09-13T00:22:26;17.20;99.90
55083;DHT22;40978;52.850;6.506;2022-09-13T00:24:52;17.20;99.90
55083;DHT22;40978;52.850;6.506;2022-09-13T00:27:18;17.20;99.90
55083;DHT22;40978;52.850;6.506;2022-09-13T00:29:43;17.20;99.90
55083;DHT22;40978;52.850;6.506;2022-09-13T00:32:09;17.20;99.90
55083;DHT22;40978;52.850;6.506;2022-09-13T00:34:35;17.20;99.90
55083;DHT22;40978;52.850;6.506;2022-09-13T00:37:00;17.20;99.90
55083;DHT22;40978;52.850;6.506;2022-09-13T00:39:26;17.20;99.90
55083;DHT22;40978;52.850;6.506;2022-09-13T00:41:52;17.20;99.90
55083;DHT22;40978;52.850;6.506;2022-09-13T00:44:51;17.20;99.90
55083;DHT22;40978;52.850;6.506;2022-09-13T00:47:25;17.20;99.90
55083;DHT22;40978;52.850;6.506;2022-09-13T00:49:57;17.20;99.90
55083;DHT22;40978;52.850;6.506;2022-09-13T00:52:28;17.20;99.90
55083;DHT22;40978;52.850;6.506;2022-09-13T00:55:01;17.20;99.90
55083;DHT22;40978;52.850;6.506;2022-09-13T00:57:28;17.20;99.90
55083;DHT22;40978;52.850;6.506;2022-09-13T01:00:03;17.20;99.90
55083;DHT22;40978;52.850;6.506;2022-09-13T01:03:02;17.20;99.90
55083;DHT22;40978;52.850;6.506;2022-09-13T01:05:36;17.10;99.90
55083;DHT22;40978;52.850;6.506;2022-09-13T01:08:04;17.20;99.90
55083;DHT22;40978;52.850;6.506;2022-09-13T01:10:44;17.20;99.90
55083;DHT22;40978;52.850;6.506;2022-09-13T01:13:20;17.20;99.90
55083;DHT22;40978;52.850;6.506;2022-09-13T01:15:47;17.20;99.90
55083;DHT22;40978;52.850;6.506;2022-09-13T01:18:14;17.20;99.90
55083;DHT22;40978;52.850;6.506;2022-09-13T01:32:10;17.20;99.90
55083;DHT22;40978;52.850;6.506;2022-09-13T01:34:55;17.20;99.90
55083;DHT22;40978;52.850;6.506;2022-09-13T01:45:43;17.20;99.90
55083;DHT22;40978;52.850;6.506;2022-09-13T01:51:06;17.20;99.90
55083;DHT22;40978;52.850;6.506;2022-09-13T01:53:44;17.20;99.90
55083;DHT22;40978;52.850;6.506;2022-09-13T01:56:37;17.20;99.90
55083;DHT22;40978;52.850;6.506;2022-09-13T02:02:04;17.20;99.90
55083;DHT22;40978;52.850;6.506;2022-09-13T02:04:45;17.20;99.90
55083;DHT22;40978;52.850;6.506;2022-09-13T02:07:15;17.20;99.90
55083;DHT22;40978;52.850;6.506;2022-09-13T02:09:45;17.20;99.90
55083;DHT22;40978;52.850;6.506;2022-09-13T02:12:17;17.20;99.90
55083;DHT22;40978;52.850;6.506;2022-09-13T02:14:48;17.20;99.90
55083;DHT22;40978;52.850;6.506;2022-09-13T02:17:20;17.20;99.90
55083;DHT22;40978;52.850;6.506;2022-09-13T02:19:56;17.20;99.90
55083;DHT22;40978;52.850;6.506;2022-09-13T02:22:32;17.20;99.90
55083;DHT22;40978;52.850;6.506;2022-09-13T02:25:04;17.20;99.90
55083;DHT22;40978;52.850;6.506;2022-09-13T02:27:33;17.20;99.90
55083;DHT22;40978;52.850;6.506;2022-09-13T02:30:08;17.20;99.90
55083;DHT22;40978;52.850;6.506;2022-09-13T02:32:44;17.20;99.90
55083;DHT22;40978;52.850;6.506;2022-09-13T02:35:21;17.20;99.90
55083;DHT22;40978;52.850;6.506;2022-09-13T02:38:07;17.20;99.90
55083;DHT22;40978;52.850;6.506;2022-09-13T02:40:41;17.20;99.90
55083;DHT22;40978;52.850;6.506;2022-09-13T02:43:26;17.20;99.90
55083;DHT22;40978;52.850;6.506;2022-09-13T02:46:34;17.20;99.90
55083;DHT22;40978;52.850;6.506;2022-09-13T02:49:17;17.20;99.90
55083;DHT22;40978;52.850;6.506;2022-09-13T02:52:20;17.20;99.90
55083;DHT22;40978;52.850;6.506;2022-09-13T02:57:38;17.30;99.90
55083;DHT22;40978;52.850;6.506;2022-09-13T03:00:06;17.20;99.90
55083;DHT22;40978;52.850;6.506;2022-09-13T03:02:33;17.20;99.90
55083;DHT22;40978;52.850;6.506;2022-09-13T03:05:00;17.30;99.90
55083;DHT22;40978;52.850;6.506;2022-09-13T03:07:26;17.20;99.90
55083;DHT22;40978;52.850;6.506;2022-09-13T03:09:58;17.30;99.90
55083;DHT22;40978;52.850;6.506;2022-09-13T03:24:47;17.30;99.90
55083;DHT22;40978;52.850;6.506;2022-09-13T03:27:29;17.20;99.90
55083;DHT22;40978;52.850;6.506;2022-09-13T03:30:07;17.20;99.90
55083;DHT22;40978;52.850;6.506;2022-09-13T03:36:11;17.20;99.90
55083;DHT22;40978;52.850;6.506;2022-09-13T03:38:16;17.20;99.90
55083;DHT22;40978;52.850;6.506;2022-09-13T03:43:29;17.20;99.90
55083;DHT22;40978;52.850;6.506;2022-09-13T03:46:04;17.20;99.90
55083;DHT22;40978;52.850;6.506;2022-09-13T03:48:35;17.20;99.90
55083;DHT22;40978;52.850;6.506;2022-09-13T03:51:03;17.30;99.90
55083;DHT22;40978;52.850;6.506;2022-09-13T03:53:30;17.30;99.90
55083;DHT22;40978;52.850;6.506;2022-09-13T03:55:58;17.30;99.90
55083;DHT22;40978;52.850;6.506;2022-09-13T03:58:25;17.30;99.90
55083;DHT22;40978;52.850;6.506;2022-09-13T04:00:51;17.30;99.90
55083;DHT22;40978;52.850;6.506;2022-09-13T04:03:19;17.30;99.90
55083;DHT22;40978;52.850;6.506;2022-09-13T04:05:45;17.30;99.90
55083;DHT22;40978;52.850;6.506;2022-09-13T04:08:11;17.40;99.90
55083;DHT22;40978;52.850;6.506;2022-09-13T04:10:37;17.40;99.90
55083;DHT22;40978;52.850;6.506;2022-09-13T04:13:03;17.30;99.90
55083;DHT22;40978;52.850;6.506;2022-09-13T04:15:29;17.40;99.90
55083;DHT22;40978;52.850;6.506;2022-09-13T04:17:58;17.30;99.90
55083;DHT22;40978;52.850;6.506;2022-09-13T04:20:24;17.30;99.90
55083;DHT22;40978;52.850;6.506;2022-09-13T04:22:54;17.40;99.90
55083;DHT22;40978;52.850;6.506;2022-09-13T04:25:21;17.40;99.90
55083;DHT22;40978;52.850;6.506;2022-09-13T04:27:48;17.40;99.90
55083;DHT22;40978;52.850;6.506;2022-09-13T04:30:13;17.40;99.90
55083;DHT22;40978;52.850;6.506;2022-09-13T04:32:42;17.50;99.90
55083;DHT22;40978;52.850;6.506;2022-09-13T04:35:09;17.50;99.90
55083;DHT22;40978;52.850;6.506;2022-09-13T04:37:35;17.50;99.90
55083;DHT22;40978;52.850;6.506;2022-09-13T04:40:01;17.50;99.90
55083;DHT22;40978;52.850;6.506;2022-09-13T04:42:27;17.50;99.90
55083;DHT22;40978;52.850;6.506;2022-09-13T04:44:52;17.50;99.90
55083;DHT22;40978;52.850;6.506;2022-09-13T04:47:18;17.50;99.90
55083;DHT22;40978;52.850;6.506;2022-09-13T04:49:43;17.50;99.90
55083;DHT22;40978;52.850;6.506;2022-09-13T04:52:09;17.50;99.90
55083;DHT22;40978;52.850;6.506;2022-09-13T04:54:35;17.60;99.90
55083;DHT22;40978;52.850;6.506;2022-09-13T04:57:00;17.50;99.90
55083;DHT22;40978;52.850;6.506;2022-09-13T04:59:26;17.50;99.90
55083;DHT22;40978;52.850;6.506;2022-09-13T05:01:52;17.60;99.90
55083;DHT22;40978;52.850;6.506;2022-09-13T05:04:17;17.50;99.90
55083;DHT22;40978;52.850;6.506;2022-09-13T05:06:43;17.60;99.90
55083;DHT22;40978;52.850;6.506;2022-09-13T05:09:13;17.60;99.90
55083;DHT22;40978;52.850;6.506;2022-09-13T05:11:39;17.60;99.90
55083;DHT22;40978;52.850;6.506;2022-09-13T05:14:05;17.60;99.90
55083;DHT22;40978;52.850;6.506;2022-09-13T05:16:32;17.60;99.90
55083;DHT22;40978;52.850;6.506;2022-09-13T05:18:59;17.60;99.90
55083;DHT22;40978;52.850;6.506;2022-09-13T05:21:25;17.60;99.90
55083;DHT22;40978;52.850;6.506;2022-09-13T05:23:53;17.60;99.90
55083;DHT22;40978;52.850;6.506;2022-09-13T05:26:22;17.60;99.90
55083;DHT22;40978;52.850;6.506;2022-09-13T05:28:47;17.60;99.90
55083;DHT22;40978;52.850;6.506;2022-09-13T05:31:31;17.60;99.90
55083;DHT22;40978;52.850;6.506;2022-09-13T05:33:59;17.70;99.90
55083;DHT22;40978;52.850;6.506;2022-09-13T05:36:26;17.60;99.90
55083;DHT22;40978;52.850;6.506;2022-09-13T05:38:53;17.70;99.90
55083;DHT22;40978;52.850;6.506;2022-09-13T05:41:19;17.70;99.90
55083;DHT22;40978;52.850;6.506;2022-09-13T05:43:44;17.70;99.90
55083;DHT22;40978;52.850;6.506;2022-09-13T05:46:12;17.70;99.90
55083;DHT22;40978;52.850;6.506;2022-09-13T05:48:38;17.70;99.90
55083;DHT22;40978;52.850;6.506;2022-09-13T05:51:06;17.70;99.90
55083;DHT22;40978;52.850;6.506;2022-09-13T05:53:33;17.70;99.90
55083;DHT22;40978;52.850;6.506;2022-09-13T05:56:00;17.60;99.90
55083;DHT22;40978;52.850;6.506;2022-09-13T05:58:26;17.60;99.90
55083;DHT22;40978;52.850;6.506;2022-09-13T06:00:55;17.60;99.90
55083;DHT22;40978;52.850;6.506;2022-09-13T06:03:24;17.70;99.90
55083;DHT22;40978;52.850;6.506;2022-09-13T06:05:54;17.70;99.90
55083;DHT22;40978;52.850;6.506;2022-09-13T06:08:21;17.60;99.90
55083;DHT22;40978;52.850;6.506;2022-09-13T06:11:00;17.60;99.90
55083;DHT22;40978;52.850;6.506;2022-09-13T06:13:27;17.60;99.90
55083;DHT22;40978;52.850;6.506;2022-09-13T06:15:54;17.50;99.90
55083;DHT22;40978;52.850;6.506;2022-09-13T06:18:21;17.60;99.90
55083;DHT22;40978;52.850;6.506;2022-09-13T06:20:47;17.50;99.90
55083;DHT22;40978;52.850;6.506;2022-09-13T06:23:13;17.50;99.90
55083;DHT22;40978;52.850;6.506;2022-09-13T06:25:40;17.50;99.90
55083;DHT22;40978;52.850;6.506;2022-09-13T06:28:06;17.50;99.90
55083;DHT22;40978;52.850;6.506;2022-09-13T06:30:32;17.50;99.90
55083;DHT22;40978;52.850;6.506;2022-09-13T06:32:58;17.50;99.90
55083;DHT22;40978;52.850;6.506;2022-09-13T06:35:24;17.50;99.90
55083;DHT22;40978;52.850;6.506;2022-09-13T06:37:53;17.50;99.90
55083;DHT22;40978;52.850;6.506;2022-09-13T06:40:19;17.50;99.90
55083;DHT22;40978;52.850;6.506;2022-09-13T06:42:47;17.50;99.90
55083;DHT22;40978;52.850;6.506;2022-09-13T06:45:13;17.50;99.90
55083;DHT22;40978;52.850;6.506;2022-09-13T06:47:38;17.50;99.90
55083;DHT22;40978;52.850;6.506;2022-09-13T06:50:05;17.40;99.90
55083;DHT22;40978;52.850;6.506;2022-09-13T06:52:31;17.40;99.90
55083;DHT22;40978;52.850;6.506;2022-09-13T06:54:57;17.30;99.90
55083;DHT22;40978;52.850;6.506;2022-09-13T06:57:23;17.40;99.90
55083;DHT22;40978;52.850;6.506;2022-09-13T06:59:49;17.40;99.90
55083;DHT22;40978;52.850;6.506;2022-09-13T07:02:15;17.40;99.90
55083;DHT22;40978;52.850;6.506;2022-09-13T07:04:40;17.40;99.90
55083;DHT22;40978;52.850;6.506;2022-09-13T07:07:06;17.40;99.90
55083;DHT22;40978;52.850;6.506;2022-09-13T07:09:32;17.50;99.90
55083;DHT22;40978;52.850;6.506;2022-09-13T07:11:59;17.60;99.90
55083;DHT22;40978;52.850;6.506;2022-09-13T07:14:27;17.60;99.90
55083;DHT22;40978;52.850;6.506;2022-09-13T07:16:56;17.70;99.90
55083;DHT22;40978;52.850;6.506;2022-09-13T07:19:26;17.70;99.90
55083;DHT22;40978;52.850;6.506;2022-09-13T07:21:53;17.80;99.90
55083;DHT22;40978;52.850;6.506;2022-09-13T07:24:20;17.80;99.90
55083;DHT22;40978;52.850;6.506;2022-09-13T07:26:46;17.90;99.90
55083;DHT22;40978;52.850;6.506;2022-09-13T07:29:17;17.90;99.90
55083;DHT22;40978;52.850;6.506;2022-09-13T07:31:46;17.90;99.90
55083;DHT22;40978;52.850;6.506;2022-09-13T07:34:14;18.00;99.90
55083;DHT22;40978;52.850;6.506;2022-09-13T07:36:41;18.10;99.90
55083;DHT22;40978;52.850;6.506;2022-09-13T07:39:07;18.10;99.90
55083;DHT22;40978;52.850;6.506;2022-09-13T07:41:33;18.10;99.90
55083;DHT22;40978;52.850;6.506;2022-09-13T07:44:00;18.10;99.90
55083;DHT22;40978;52.850;6.506;2022-09-13T07:46:28;18.30;99.90
55083;DHT22;40978;52.850;6.506;2022-09-13T07:48:57;18.50;99.90
55083;DHT22;40978;52.850;6.506;2022-09-13T07:51:25;18.70;99.90
55083;DHT22;40978;52.850;6.506;2022-09-13T07:53:54;19.10;99.90
55083;DHT22;40978;52.850;6.506;2022-09-13T07:56:23;19.40;99.90
55083;DHT22;40978;52.850;6.506;2022-09-13T07:58:50;19.60;99.90
55083;DHT22;40978;52.850;6.506;2022-09-13T08:01:20;19.80;99.90
55083;DHT22;40978;52.850;6.506;2022-09-13T08:04:06;20.00;99.90
55083;DHT22;40978;52.850;6.506;2022-09-13T08:06:34;20.20;99.90
55083;DHT22;40978;52.850;6.506;2022-09-13T08:09:00;20.10;99.90
55083;DHT22;40978;52.850;6.506;2022-09-13T08:11:32;20.00;99.90
55083;DHT22;40978;52.850;6.506;2022-09-13T08:13:58;19.90;99.90
55083;DHT22;40978;52.850;6.506;2022-09-13T08:16:25;19.70;99.90
55083;DHT22;40978;52.850;6.506;2022-09-13T08:18:55;19.70;99.90
55083;DHT22;40978;52.850;6.506;2022-09-13T08:21:22;19.50;99.90
55083;DHT22;40978;52.850;6.506;2022-09-13T08:23:48;19.40;99.90
55083;DHT22;40978;52.850;6.506;2022-09-13T08:26:15;19.30;99.90
55083;DHT22;40978;52.850;6.506;2022-09-13T08:28:41;19.30;99.90
55083;DHT22;40978;52.850;6.506;2022-09-13T08:31:08;19.20;99.90
55083;DHT22;40978;52.850;6.506;2022-09-13T08:33:34;19.20;99.90
55083;DHT22;40978;52.850;6.506;2022-09-13T08:36:00;19.20;99.90
55083;DHT22;40978;52.850;6.506;2022-09-13T08:38:27;19.40;99.90
55083;DHT22;40978;52.850;6.506;2022-09-13T08:41:01;20.00;99.90
55083;DHT22;40978;52.850;6.506;2022-09-13T08:46:26;20.80;99.90
55083;DHT22;40978;52.850;6.506;2022-09-13T08:49:04;20.80;99.90
55083;DHT22;40978;52.850;6.506;2022-09-13T08:52:34;20.60;99.90
55083;DHT22;40978;52.850;6.506;2022-09-13T08:54:29;20.50;99.90
55083;DHT22;40978;52.850;6.506;2022-09-13T09:02:25;22.20;99.90
55083;DHT22;40978;52.850;6.506;2022-09-13T09:05:25;23.30;99.90
55083;DHT22;40978;52.850;6.506;2022-09-13T09:10:31;24.90;99.90
55083;DHT22;40978;52.850;6.506;2022-09-13T09:13:24;24.60;99.90
55083;DHT22;40978;52.850;6.506;2022-09-13T09:15:54;23.90;99.90
55083;DHT22;40978;52.850;6.506;2022-09-13T09:18:23;23.30;99.90
55083;DHT22;40978;52.850;6.506;2022-09-13T09:20:52;23.40;99.90
55083;DHT22;40978;52.850;6.506;2022-09-13T09:23:21;23.60;99.90
55083;DHT22;40978;52.850;6.506;2022-09-13T09:25:50;23.50;99.90
55083;DHT22;40978;52.850;6.506;2022-09-13T09:28:19;23.90;99.90
55083;DHT22;40978;52.850;6.506;2022-09-13T09:30:58;24.40;98.20
55083;DHT22;40978;52.850;6.506;2022-09-13T09:33:50;24.60;96.40
55083;DHT22;40978;52.850;6.506;2022-09-13T09:39:09;25.50;92.10
55083;DHT22;40978;52.850;6.506;2022-09-13T09:41:35;25.70;92.00
55083;DHT22;40978;52.850;6.506;2022-09-13T09:46:32;26.00;90.30
55083;DHT22;40978;52.850;6.506;2022-09-13T09:49:19;26.10;88.50
55083;DHT22;40978;52.850;6.506;2022-09-13T09:52:06;26.30;81.00
55083;DHT22;40978;52.850;6.506;2022-09-13T09:54:34;26.30;84.60
55083;DHT22;40978;52.850;6.506;2022-09-13T09:57:01;26.40;85.70
55083;DHT22;40978;52.850;6.506;2022-09-13T09:59:29;26.50;84.80
55083;DHT22;40978;52.850;6.506;2022-09-13T10:01:57;26.60;82.20
55083;DHT22;40978;52.850;6.506;2022-09-13T10:04:23;26.60;84.40
55083;DHT22;40978;52.850;6.506;2022-09-13T10:07:15;26.00;79.60
55083;DHT22;40978;52.850;6.506;2022-09-13T10:09:59;25.40;77.50
55083;DHT22;40978;52.850;6.506;2022-09-13T10:12:31;24.60;78.10
55083;DHT22;40978;52.850;6.506;2022-09-13T10:15:19;24.40;80.50
55083;DHT22;40978;52.850;6.506;2022-09-13T10:18:13;24.70;79.30
55083;DHT22;40978;52.850;6.506;2022-09-13T10:20:39;25.30;80.10
55083;DHT22;40978;52.850;6.506;2022-09-13T10:23:23;25.90;76.80
55083;DHT22;40978;52.850;6.506;2022-09-13T10:28:29;26.40;76.00
55083;DHT22;40978;52.850;6.506;2022-09-13T10:30:58;26.70;77.20
55083;DHT22;40978;52.850;6.506;2022-09-13T10:33:40;26.40;72.70
55083;DHT22;40978;52.850;6.506;2022-09-13T10:36:20;25.60;73.60
55083;DHT22;40978;52.850;6.506;2022-09-13T10:39:14;24.80;75.70
55083;DHT22;40978;52.850;6.506;2022-09-13T10:41:49;24.40;76.40
55083;DHT22;40978;52.850;6.506;2022-09-13T10:44:40;24.60;78.50
55083;DHT22;40978;52.850;6.506;2022-09-13T10:47:13;25.00;75.50
55083;DHT22;40978;52.850;6.506;2022-09-13T10:49:51;25.20;77.20
55083;DHT22;40978;52.850;6.506;2022-09-13T10:52:32;25.20;75.70
55083;DHT22;40978;52.850;6.506;2022-09-13T10:57:46;24.60;68.90
55083;DHT22;40978;52.850;6.506;2022-09-13T11:00:41;24.40;73.30
55083;DHT22;40978;52.850;6.506;2022-09-13T11:06:01;25.20;71.00
55083;DHT22;40978;52.850;6.506;2022-09-13T11:28:24;26.40;64.90
55083;DHT22;40978;52.850;6.506;2022-09-13T11:39:37;26.60;61.00
55083;DHT22;40978;52.850;6.506;2022-09-13T11:50:37;27.10;60.50
55083;DHT22;40978;52.850;6.506;2022-09-13T11:53:28;27.30;62.80
55083;DHT22;40978;52.850;6.506;2022-09-13T11:56:00;27.40;61.70
55083;DHT22;40978;52.850;6.506;2022-09-13T11:58:38;27.30;61.00
55083;DHT22;40978;52.850;6.506;2022-09-13T12:01:09;26.60;63.30
55083;DHT22;40978;52.850;6.506;2022-09-13T12:03:48;25.80;65.20
55083;DHT22;40978;52.850;6.506;2022-09-13T12:06:33;25.00;65.80
55083;DHT22;40978;52.850;6.506;2022-09-13T12:11:49;24.90;66.80
55083;DHT22;40978;52.850;6.506;2022-09-13T12:14:22;24.80;67.40
55083;DHT22;40978;52.850;6.506;2022-09-13T12:16:51;25.00;67.90
55083;DHT22;40978;52.850;6.506;2022-09-13T12:22:01;25.40;65.70
55083;DHT22;40978;52.850;6.506;2022-09-13T12:24:41;25.60;64.10
55083;DHT22;40978;52.850;6.506;2022-09-13T12:27:21;25.80;65.00
55083;DHT22;40978;52.850;6.506;2022-09-13T12:29:52;25.90;64.30
55083;DHT22;40978;52.850;6.506;2022-09-13T12:32:18;26.00;63.10
55083;DHT22;40978;52.850;6.506;2022-09-13T12:34:56;26.10;62.60
55083;DHT22;40978;52.850;6.506;2022-09-13T12:42:38;25.40;63.10
55083;DHT22;40978;52.850;6.506;2022-09-13T12:45:14;25.70;62.90
55083;DHT22;40978;52.850;6.506;2022-09-13T12:56:55;28.10;55.90
55083;DHT22;40978;52.850;6.506;2022-09-13T12:59:53;27.90;57.30
55083;DHT22;40978;52.850;6.506;2022-09-13T13:02:38;27.80;57.50
55083;DHT22;40978;52.850;6.506;2022-09-13T13:05:19;27.50;56.50
55083;DHT22;40978;52.850;6.506;2022-09-13T13:07:58;27.20;56.50
55083;DHT22;40978;52.850;6.506;2022-09-13T13:10:26;27.10;58.60
55083;DHT22;40978;52.850;6.506;2022-09-13T13:12:55;27.00;57.30
55083;DHT22;40978;52.850;6.506;2022-09-13T13:17:52;26.50;58.30
55083;DHT22;40978;52.850;6.506;2022-09-13T13:36:26;25.00;62.50
55083;DHT22;40978;52.850;6.506;2022-09-13T13:38:58;24.90;64.10
55083;DHT22;40978;52.850;6.506;2022-09-13T13:46:46;24.40;62.40
55083;DHT22;40978;52.850;6.506;2022-09-13T13:57:40;23.40;66.30
55083;DHT22;40978;52.850;6.506;2022-09-13T14:00:20;23.10;66.10
55083;DHT22;40978;52.850;6.506;2022-09-13T14:05:32;22.90;66.10
55083;DHT22;40978;52.850;6.506;2022-09-13T14:16:19;22.30;68.00
55083;DHT22;40978;52.850;6.506;2022-09-13T14:21:32;22.00;68.40
55083;DHT22;40978;52.850;6.506;2022-09-13T14:24:20;21.90;70.10
55083;DHT22;40978;52.850;6.506;2022-09-13T14:26:57;21.80;70.40
55083;DHT22;40978;52.850;6.506;2022-09-13T14:29:24;21.70;70.30
55083;DHT22;40978;52.850;6.506;2022-09-13T14:31:54;21.70;71.50
55083;DHT22;40978;52.850;6.506;2022-09-13T14:34:33;21.60;72.40
55083;DHT22;40978;52.850;6.506;2022-09-13T14:37:14;21.40;73.20
55083;DHT22;40978;52.850;6.506;2022-09-13T14:39:57;21.20;72.90
55083;DHT22;40978;52.850;6.506;2022-09-13T14:42:23;21.10;73.90
55083;DHT22;40978;52.850;6.506;2022-09-13T14:44:49;21.00;74.50
55083;DHT22;40978;52.850;6.506;2022-09-13T14:47:32;20.90;74.80
55083;DHT22;40978;52.850;6.506;2022-09-13T14:50:07;20.90;75.20
55083;DHT22;40978;52.850;6.506;2022-09-13T14:52:45;20.90;75.50
55083;DHT22;40978;52.850;6.506;2022-09-13T14:55:17;20.90;76.10
55083;DHT22;40978;52.850;6.506;2022-09-13T14:57:50;20.90;76.10
55083;DHT22;40978;52.850;6.506;2022-09-13T15:00:19;20.80;76.20
55083;DHT22;40978;52.850;6.506;2022-09-13T15:02:50;20.80;76.70
55083;DHT22;40978;52.850;6.506;2022-09-13T15:05:18;20.80;77.10
55083;DHT22;40978;52.850;6.506;2022-09-13T15:07:44;20.70;76.80
55083;DHT22;40978;52.850;6.506;2022-09-13T15:10:26;20.70;77.20
55083;DHT22;40978;52.850;6.506;2022-09-13T15:15:38;20.50;77.70
55083;DHT22;40978;52.850;6.506;2022-09-13T15:21:00;20.40;77.70
55083;DHT22;40978;52.850;6.506;2022-09-13T15:23:33;20.40;78.40
55083;DHT22;40978;52.850;6.506;2022-09-13T15:28:32;20.20;78.40
55083;DHT22;40978;52.850;6.506;2022-09-13T15:30:59;20.20;79.40
55083;DHT22;40978;52.850;6.506;2022-09-13T15:33:30;20.20;80.80
55083;DHT22;40978;52.850;6.506;2022-09-13T15:41:35;20.10;81.50
55083;DHT22;40978;52.850;6.506;2022-09-13T15:44:03;20.10;81.70
55083;DHT22;40978;52.850;6.506;2022-09-13T15:46:30;20.10;82.10
55083;DHT22;40978;52.850;6.506;2022-09-13T15:49:00;20.10;82.80
55083;DHT22;40978;52.850;6.506;2022-09-13T15:51:26;20.00;83.80
55083;DHT22;40978;52.850;6.506;2022-09-13T15:53:52;19.90;84.50
55083;DHT22;40978;52.850;6.506;2022-09-13T15:56:30;19.90;84.40
55083;DHT22;40978;52.850;6.506;2022-09-13T15:58:57;19.80;85.10
55083;DHT22;40978;52.850;6.506;2022-09-13T16:01:23;19.70;85.20
55083;DHT22;40978;52.850;6.506;2022-09-13T16:03:49;19.60;85.60
55083;DHT22;40978;52.850;6.506;2022-09-13T16:06:17;19.60;86.40
55083;DHT22;40978;52.850;6.506;2022-09-13T16:08:42;19.50;87.00
55083;DHT22;40978;52.850;6.506;2022-09-13T16:11:08;19.50;87.00
55083;DHT22;40978;52.850;6.506;2022-09-13T16:13:34;19.50;87.70
55083;DHT22;40978;52.850;6.506;2022-09-13T16:16:01;19.50;87.40
55083;DHT22;40978;52.850;6.506;2022-09-13T16:18:27;19.40;87.80
55083;DHT22;40978;52.850;6.506;2022-09-13T16:20:53;19.30;88.50
55083;DHT22;40978;52.850;6.506;2022-09-13T16:23:18;19.30;89.20
55083;DHT22;40978;52.850;6.506;2022-09-13T16:25:44;19.30;90.30
55083;DHT22;40978;52.850;6.506;2022-09-13T16:28:17;19.20;90.00
55083;DHT22;40978;52.850;6.506;2022-09-13T16:30:46;19.20;90.10
55083;DHT22;40978;52.850;6.506;2022-09-13T16:33:11;19.10;90.20
55083;DHT22;40978;52.850;6.506;2022-09-13T16:35:37;19.10;90.50
55083;DHT22;40978;52.850;6.506;2022-09-13T16:38:03;19.00;90.60
55083;DHT22;40978;52.850;6.506;2022-09-13T16:40:28;19.00;90.80
55083;DHT22;40978;52.850;6.506;2022-09-13T16:42:54;18.90;90.70
55083;DHT22;40978;52.850;6.506;2022-09-13T16:45:20;18.90;90.60
55083;DHT22;40978;52.850;6.506;2022-09-13T16:47:46;18.80;90.70
55083;DHT22;40978;52.850;6.506;2022-09-13T16:50:12;18.70;90.60
55083;DHT22;40978;52.850;6.506;2022-09-13T16:52:37;18.70;90.90
55083;DHT22;40978;52.850;6.506;2022-09-13T16:55:04;18.60;91.40
55083;DHT22;40978;52.850;6.506;2022-09-13T16:57:30;18.60;91.80
55083;DHT22;40978;52.850;6.506;2022-09-13T16:59:56;18.50;92.00
55083;DHT22;40978;52.850;6.506;2022-09-13T17:02:26;18.50;92.40
55083;DHT22;40978;52.850;6.506;2022-09-13T17:04:52;18.50;93.00
55083;DHT22;40978;52.850;6.506;2022-09-13T17:07:18;18.40;93.20
55083;DHT22;40978;52.850;6.506;2022-09-13T17:09:44;18.30;93.70
55083;DHT22;40978;52.850;6.506;2022-09-13T17:12:11;18.30;94.00
55083;DHT22;40978;52.850;6.506;2022-09-13T17:14:39;18.20;94.70
55083;DHT22;40978;52.850;6.506;2022-09-13T17:17:07;18.20;94.90
55083;DHT22;40978;52.850;6.506;2022-09-13T17:19:33;18.10;95.20
55083;DHT22;40978;52.850;6.506;2022-09-13T17:22:01;18.10;95.50
55083;DHT22;40978;52.850;6.506;2022-09-13T17:24:28;18.00;96.00
55083;DHT22;40978;52.850;6.506;2022-09-13T17:26:55;17.90;96.20
55083;DHT22;40978;52.850;6.506;2022-09-13T17:29:21;17.90;96.70
55083;DHT22;40978;52.850;6.506;2022-09-13T17:31:50;17.80;97.30
55083;DHT22;40978;52.850;6.506;2022-09-13T17:34:16;17.80;97.80
55083;DHT22;40978;52.850;6.506;2022-09-13T17:36:42;17.70;98.40
55083;DHT22;40978;52.850;6.506;2022-09-13T17:39:08;17.60;98.70
55083;DHT22;40978;52.850;6.506;2022-09-13T17:41:34;17.60;99.70
55083;DHT22;40978;52.850;6.506;2022-09-13T17:44:00;17.50;99.90
55083;DHT22;40978;52.850;6.506;2022-09-13T17:46:26;17.40;99.90
55083;DHT22;40978;52.850;6.506;2022-09-13T17:48:55;17.30;99.90
55083;DHT22;40978;52.850;6.506;2022-09-13T17:51:24;17.30;99.90
55083;DHT22;40978;52.850;6.506;2022-09-13T17:53:52;17.20;99.90
55083;DHT22;40978;52.850;6.506;2022-09-13T17:56:21;17.20;99.90
55083;DHT22;40978;52.850;6.506;2022-09-13T17:58:47;17.10;99.90
55083;DHT22;40978;52.850;6.506;2022-09-13T18:01:13;17.00;99.90
55083;DHT22;40978;52.850;6.506;2022-09-13T18:03:39;17.00;99.90
55083;DHT22;40978;52.850;6.506;2022-09-13T18:06:06;16.90;99.90
55083;DHT22;40978;52.850;6.506;2022-09-13T18:08:34;16.90;99.90
55083;DHT22;40978;52.850;6.506;2022-09-13T18:11:10;16.80;99.90
55083;DHT22;40978;52.850;6.506;2022-09-13T18:13:36;16.70;99.90
55083;DHT22;40978;52.850;6.506;2022-09-13T18:16:05;16.60;99.90
55083;DHT22;40978;52.850;6.506;2022-09-13T18:18:33;16.50;99.90
55083;DHT22;40978;52.850;6.506;2022-09-13T18:20:59;16.50;99.90
55083;DHT22;40978;52.850;6.506;2022-09-13T18:23:25;16.40;99.90
55083;DHT22;40978;52.850;6.506;2022-09-13T18:26:04;16.40;99.90
55083;DHT22;40978;52.850;6.506;2022-09-13T18:28:31;16.30;99.90
55083;DHT22;40978;52.850;6.506;2022-09-13T18:30:58;16.20;99.90
55083;DHT22;40978;52.850;6.506;2022-09-13T18:33:25;16.10;99.90
55083;DHT22;40978;52.850;6.506;2022-09-13T18:36:08;16.10;99.90
55083;DHT22;40978;52.850;6.506;2022-09-13T18:38:36;16.00;99.90
55083;DHT22;40978;52.850;6.506;2022-09-13T18:41:07;16.00;99.90
55083;DHT22;40978;52.850;6.506;2022-09-13T18:43:35;16.00;99.90
55083;DHT22;40978;52.850;6.506;2022-09-13T18:46:03;15.90;99.90
55083;DHT22;40978;52.850;6.506;2022-09-13T18:48:32;15.80;99.90
55083;DHT22;40978;52.850;6.506;2022-09-13T18:50:58;15.80;99.90
55083;DHT22;40978;52.850;6.506;2022-09-13T18:53:25;15.70;99.90
55083;DHT22;40978;52.850;6.506;2022-09-13T18:55:52;15.70;99.90
55083;DHT22;40978;52.850;6.506;2022-09-13T18:58:18;15.60;99.90